createdAt,value
2019-03-25T00:00:01.089Z,101964.17
2019-03-25T00:01:18.063Z,101966.42
2019-03-25T00:02:26.875Z,101959.45
2019-03-25T00:03:32.588Z,101963.11
2019-03-25T00:04:38.685Z,101960.52
2019-03-25T00:05:44.470Z,101954.47
2019-03-25T00:06:50.095Z,101954.54
2019-03-25T00:07:55.729Z,101955.09
2019-03-25T00:09:05.267Z,101956.47
2019-03-25T00:10:08.961Z,101957.89
2019-03-25T00:11:14.656Z,101953.13
2019-03-25T00:12:20.316Z,101956.23
2019-03-25T00:13:26.080Z,101954.14
2019-03-25T00:14:31.690Z,101957.70
2019-03-25T00:15:37.843Z,101953.38
2019-03-25T00:16:43.389Z,101946.38
2019-03-25T00:17:49.057Z,101943.33
2019-03-25T00:18:54.922Z,101937.68
2019-03-25T00:20:00.625Z,101936.42
2019-03-25T00:21:06.413Z,101932.92
2019-03-25T00:22:11.983Z,101930.67
2019-03-25T00:23:17.473Z,101933.88
2019-03-25T00:24:23.090Z,101928.19
2019-03-25T00:25:28.779Z,101927.79
2019-03-25T00:26:34.783Z,101933.99
2019-03-25T00:27:40.377Z,101925.70
2019-03-25T00:28:46.093Z,101922.27
2019-03-25T00:29:53.936Z,101922.27
2019-03-25T00:30:59.714Z,101920.17
2019-03-25T00:32:05.500Z,101919.77
2019-03-25T00:33:11.471Z,101916.37
2019-03-25T00:34:17.003Z,101916.42
2019-03-25T00:35:22.608Z,101916.92
2019-03-25T00:36:28.233Z,101916.06
2019-03-25T00:37:33.862Z,101912.56
2019-03-25T00:38:39.367Z,101914.74
2019-03-25T00:39:45.338Z,101907.28
2019-03-25T00:40:50.995Z,101902.40
2019-03-25T00:41:56.860Z,101903.16
2019-03-25T00:43:02.522Z,101910.99
2019-03-25T00:44:08.020Z,101904.73
2019-03-25T00:45:14.142Z,101906.35
2019-03-25T00:46:19.783Z,101907.52
2019-03-25T00:47:25.456Z,101903.50
2019-03-25T00:48:31.192Z,101903.34
2019-03-25T00:49:36.774Z,101902.72
2019-03-25T00:50:42.465Z,101899.98
2019-03-25T00:51:48.110Z,101897.34
2019-03-25T00:52:53.637Z,101894.70
2019-03-25T00:53:59.314Z,101906.03
2019-03-25T00:55:04.995Z,101895.86
2019-03-25T00:56:10.632Z,101897.13
2019-03-25T00:57:16.530Z,101890.05
2019-03-25T00:58:22.233Z,101883.91
2019-03-25T00:59:28.161Z,101886.92
2019-03-25T01:00:34.005Z,101885.30
2019-03-25T01:01:39.745Z,101889.26
2019-03-25T01:02:48.401Z,101889.20
2019-03-25T01:03:54.133Z,101882.13
2019-03-25T01:04:59.835Z,101876.75
2019-03-25T01:06:05.509Z,101874.11
2019-03-25T01:07:11.583Z,101871.40
2019-03-25T01:08:17.211Z,101868.36
2019-03-25T01:09:22.808Z,101867.44
2019-03-25T01:10:28.526Z,101868.59
2019-03-25T01:11:34.209Z,101865.95
2019-03-25T01:12:39.872Z,101865.86
2019-03-25T01:13:45.389Z,101869.76
2019-03-25T01:14:50.917Z,101864.54
2019-03-25T01:15:56.652Z,101865.46
2019-03-25T01:18:16.315Z,101858.09
2019-03-25T01:19:13.487Z,101856.47
2019-03-25T01:20:19.365Z,101856.63
2019-03-25T01:21:24.933Z,101846.22
2019-03-25T01:22:30.690Z,101851.58
2019-03-25T01:23:36.579Z,101847.31
2019-03-25T01:24:42.604Z,101852.29
2019-03-25T01:25:48.152Z,101846.70
2019-03-25T01:26:53.806Z,101834.12
2019-03-25T01:27:59.462Z,101841.70
2019-03-25T01:29:05.345Z,101834.73
2019-03-25T01:30:11.468Z,101835.66
2019-03-25T01:31:17.070Z,101831.30
2019-03-25T01:32:22.674Z,101835.27
2019-03-25T01:33:28.385Z,101833.48
2019-03-25T01:34:34.073Z,101827.73
2019-03-25T01:35:40.665Z,101825.86
2019-03-25T01:36:46.558Z,101828.73
2019-03-25T01:37:52.165Z,101825.02
2019-03-25T01:38:57.891Z,101819.57
2019-03-25T01:40:05.160Z,101817.23
2019-03-25T01:41:11.192Z,101819.70
2019-03-25T01:42:17.150Z,101822.19
2019-03-25T01:43:22.716Z,101811.55
2019-03-25T01:44:28.333Z,101812.41
2019-03-25T01:45:36.427Z,101822.89
2019-03-25T01:46:42.495Z,101816.67
2019-03-25T01:47:48.194Z,101811.79
2019-03-25T01:48:53.841Z,101816.58
2019-03-25T01:49:59.461Z,101809.52
2019-03-25T01:51:05.311Z,101803.30
2019-03-25T01:52:10.987Z,101808.03
2019-03-25T01:53:16.649Z,101802.22
2019-03-25T01:54:23.992Z,101811.30
2019-03-25T01:55:29.884Z,101806.41
2019-03-25T01:56:35.421Z,101810.73
2019-03-25T01:57:40.964Z,101802.74
2019-03-25T01:58:46.662Z,101804.53
2019-03-25T01:59:52.371Z,101803.60
2019-03-25T02:00:58.034Z,101807.17
2019-03-25T02:02:03.737Z,101796.20
2019-03-25T02:03:09.550Z,101794.36
2019-03-25T02:04:15.225Z,101804.83
2019-03-25T02:05:21.110Z,101794.25
2019-03-25T02:06:26.738Z,101796.37
2019-03-25T02:07:32.333Z,101796.37
2019-03-25T02:08:38.983Z,101790.52
2019-03-25T02:09:44.698Z,101785.63
2019-03-25T02:10:50.597Z,101786.45
2019-03-25T02:11:56.155Z,101780.64
2019-03-25T02:13:01.831Z,101772.70
2019-03-25T02:14:07.462Z,101772.70
2019-03-25T02:15:13.137Z,101781.03
2019-03-25T02:16:18.762Z,101774.03
2019-03-25T02:17:24.340Z,101773.11
2019-03-25T02:18:30.151Z,101773.47
2019-03-25T02:19:35.670Z,101776.05
2019-03-25T02:20:41.219Z,101769.33
2019-03-25T02:21:46.816Z,101771.80
2019-03-25T02:22:52.640Z,101778.81
2019-03-25T02:23:58.457Z,101767.67
2019-03-25T02:25:04.191Z,101773.81
2019-03-25T02:26:09.829Z,101768.07
2019-03-25T02:27:18.615Z,101770.18
2019-03-25T02:28:24.981Z,101753.99
2019-03-25T02:29:30.550Z,101753.99
2019-03-25T02:30:36.534Z,101766.51
2019-03-25T02:31:42.605Z,101759.11
2019-03-25T02:32:48.141Z,101761.69
2019-03-25T02:33:54.133Z,101764.33
2019-03-25T02:34:59.852Z,101753.19
2019-03-25T02:36:05.704Z,101753.19
2019-03-25T02:37:12.013Z,101749.78
2019-03-25T02:38:18.261Z,101749.78
2019-03-25T02:39:23.966Z,101754.91
2019-03-25T02:40:29.613Z,101748.69
2019-03-25T02:41:35.304Z,101749.05
2019-03-25T02:42:40.925Z,101750.30
2019-03-25T02:43:46.580Z,101749.73
2019-03-25T02:44:52.190Z,101746.63
2019-03-25T02:46:08.772Z,101743.34
2019-03-25T02:47:14.350Z,101738.34
2019-03-25T02:48:20.053Z,101738.73
2019-03-25T02:49:25.811Z,101742.14
2019-03-25T02:50:31.434Z,101737.64
2019-03-25T02:51:37.376Z,101743.28
2019-03-25T02:52:43.074Z,101736.61
2019-03-25T02:53:48.628Z,101737.07
2019-03-25T02:54:54.618Z,101733.56
2019-03-25T02:56:00.292Z,101737.47
2019-03-25T02:57:06.204Z,101731.25
2019-03-25T02:58:11.782Z,101733.96
2019-03-25T02:59:17.700Z,101733.10
2019-03-25T03:00:34.571Z,101724.77
2019-03-25T03:01:40.804Z,101721.59
2019-03-25T03:02:46.663Z,101718.09
2019-03-25T03:03:52.428Z,101719.88
2019-03-25T03:04:58.082Z,101719.88
2019-03-25T03:06:05.676Z,101714.77
2019-03-25T03:07:11.258Z,101714.77
2019-03-25T03:08:17.345Z,101702.83
2019-03-25T03:09:22.843Z,101702.83
2019-03-25T03:10:28.470Z,101713.22
2019-03-25T03:11:33.985Z,101703.89
2019-03-25T03:12:39.611Z,101708.16
2019-03-25T03:13:45.250Z,101703.62
2019-03-25T03:14:50.798Z,101709.30
2019-03-25T03:15:56.803Z,101700.44
2019-03-25T03:17:02.671Z,101702.62
2019-03-25T03:18:08.286Z,101702.15
2019-03-25T03:19:14.024Z,101701.19
2019-03-25T03:20:19.777Z,101694.58
2019-03-25T03:21:25.765Z,101688.25
2019-03-25T03:22:31.692Z,101690.07
2019-03-25T03:23:37.405Z,101693.08
2019-03-25T03:24:43.411Z,101686.11
2019-03-25T03:25:57.274Z,101686.11
2019-03-25T03:26:56.722Z,101689.21
2019-03-25T03:28:02.615Z,101686.28
2019-03-25T03:29:08.278Z,101690.25
2019-03-25T03:30:14.563Z,101684.00
2019-03-25T03:31:20.204Z,101688.36
2019-03-25T03:32:25.916Z,101680.42
2019-03-25T03:33:31.693Z,101675.13
2019-03-25T03:34:37.348Z,101677.31
2019-03-25T03:35:46.311Z,101681.75
2019-03-25T03:36:50.575Z,101677.38
2019-03-25T03:37:56.157Z,101668.41
2019-03-25T03:39:01.684Z,101680.13
2019-03-25T03:40:07.491Z,101671.88
2019-03-25T03:41:13.157Z,101681.45
2019-03-25T03:42:20.529Z,101678.81
2019-03-25T03:43:26.273Z,101674.92
2019-03-25T03:44:32.188Z,101678.88
2019-03-25T03:45:37.776Z,101679.34
2019-03-25T03:46:43.770Z,101679.34
2019-03-25T03:47:49.433Z,101669.73
2019-03-25T03:48:55.068Z,101676.81
2019-03-25T03:50:00.684Z,101679.45
2019-03-25T03:51:06.413Z,101681.14
2019-03-25T03:52:13.202Z,101678.03
2019-03-25T03:53:19.260Z,101671.88
2019-03-25T03:54:25.380Z,101673.59
2019-03-25T03:55:31.460Z,101674.06
2019-03-25T03:56:37.603Z,101666.05
2019-03-25T03:57:44.482Z,101685.03
2019-03-25T03:58:50.200Z,101681.92
2019-03-25T03:59:56.928Z,101684.17
2019-03-25T04:01:04.282Z,101679.28
2019-03-25T04:02:09.849Z,101679.81
2019-03-25T04:03:15.430Z,101678.67
2019-03-25T04:04:21.144Z,101677.34
2019-03-25T04:05:26.802Z,101678.09
2019-03-25T04:06:32.373Z,101678.09
2019-03-25T04:07:38.739Z,101686.24
2019-03-25T04:08:44.613Z,101684.53
2019-03-25T04:09:50.506Z,101682.45
2019-03-25T04:10:56.221Z,101675.23
2019-03-25T04:12:02.210Z,101675.23
2019-03-25T04:13:07.799Z,101692.06
2019-03-25T04:14:13.445Z,101688.10
2019-03-25T04:15:26.104Z,101689.42
2019-03-25T04:16:31.786Z,101688.10
2019-03-25T04:17:37.460Z,101683.20
2019-03-25T04:18:43.019Z,101688.56
2019-03-25T04:19:48.834Z,101692.53
2019-03-25T04:20:54.342Z,101700.97
2019-03-25T04:22:00.248Z,101695.28
2019-03-25T04:23:05.975Z,101693.03
2019-03-25T04:24:11.859Z,101693.03
2019-03-25T04:25:17.464Z,101696.60
2019-03-25T04:26:28.905Z,101693.95
2019-03-25T04:27:30.279Z,101691.78
2019-03-25T04:28:36.141Z,101697.17
2019-03-25T04:29:41.630Z,101693.67
2019-03-25T04:30:47.308Z,101692.03
2019-03-25T04:31:52.909Z,101691.66
2019-03-25T04:32:58.523Z,101679.84
2019-03-25T04:34:04.103Z,101689.55
2019-03-25T04:35:10.277Z,101683.69
2019-03-25T04:36:16.209Z,101682.15
2019-03-25T04:37:22.589Z,101683.25
2019-03-25T04:38:28.227Z,101685.70
2019-03-25T04:39:33.882Z,101694.17
2019-03-25T04:40:39.933Z,101687.73
2019-03-25T04:41:45.791Z,101696.59
2019-03-25T04:42:51.475Z,101705.02
2019-03-25T04:43:57.133Z,101696.69
2019-03-25T04:45:03.146Z,101703.30
2019-03-25T04:46:09.114Z,101700.55
2019-03-25T04:47:14.728Z,101705.70
2019-03-25T04:48:20.493Z,101695.48
2019-03-25T04:49:26.110Z,101692.27
2019-03-25T04:50:31.772Z,101692.27
2019-03-25T04:51:37.376Z,101701.34
2019-03-25T04:52:48.998Z,101691.64
2019-03-25T04:53:54.704Z,101691.64
2019-03-25T04:55:00.269Z,101701.69
2019-03-25T04:56:06.224Z,101697.79
2019-03-25T04:57:11.911Z,101699.97
2019-03-25T04:58:17.522Z,101702.39
2019-03-25T04:59:23.044Z,101704.67
2019-03-25T05:00:36.298Z,101701.63
2019-03-25T05:01:41.942Z,101693.70
2019-03-25T05:02:47.520Z,101697.38
2019-03-25T05:03:53.145Z,101697.05
2019-03-25T05:04:58.831Z,101697.61
2019-03-25T05:06:04.398Z,101692.89
2019-03-25T05:07:10.086Z,101700.98
2019-03-25T05:08:16.163Z,101690.02
2019-03-25T05:09:21.781Z,101698.97
2019-03-25T05:10:27.375Z,101688.48
2019-03-25T05:11:33.011Z,101696.00
2019-03-25T05:12:38.575Z,101693.06
2019-03-25T05:13:44.443Z,101696.17
2019-03-25T05:14:50.153Z,101695.25
2019-03-25T05:15:55.829Z,101693.92
2019-03-25T05:17:01.530Z,101695.71
2019-03-25T05:18:07.068Z,101692.61
2019-03-25T05:19:12.979Z,101704.49
2019-03-25T05:20:18.558Z,101702.02
2019-03-25T05:21:24.426Z,101704.83
2019-03-25T05:22:30.337Z,101702.25
2019-03-25T05:23:36.004Z,101702.35
2019-03-25T05:24:41.648Z,101705.91
2019-03-25T05:25:47.258Z,101706.84
2019-03-25T05:26:52.889Z,101713.45
2019-03-25T05:27:58.698Z,101709.13
2019-03-25T05:29:04.281Z,101710.05
2019-03-25T05:30:10.137Z,101708.33
2019-03-25T05:31:16.050Z,101708.73
2019-03-25T05:32:22.031Z,101711.83
2019-03-25T05:33:27.649Z,101718.53
2019-03-25T05:34:33.276Z,101716.41
2019-03-25T05:35:39.024Z,101728.86
2019-03-25T05:36:44.570Z,101724.14
2019-03-25T05:37:50.150Z,101730.02
2019-03-25T05:38:56.201Z,101726.52
2019-03-25T05:40:02.187Z,101728.86
2019-03-25T05:41:07.862Z,101728.92
2019-03-25T05:42:13.845Z,101726.44
2019-03-25T05:43:21.153Z,101734.82
2019-03-25T05:44:27.085Z,101728.31
2019-03-25T05:45:32.956Z,101725.74
2019-03-25T05:46:38.950Z,101727.12
2019-03-25T05:47:44.656Z,101727.52
2019-03-25T05:48:50.130Z,101729.77
2019-03-25T05:49:56.164Z,101728.45
2019-03-25T05:51:01.686Z,101733.20
2019-03-25T05:52:07.290Z,101726.14
2019-03-25T05:53:12.836Z,101732.64
2019-03-25T05:54:18.405Z,101728.52
2019-03-25T05:55:24.459Z,101727.44
2019-03-25T05:56:30.120Z,101735.63
2019-03-25T05:57:35.852Z,101733.22
2019-03-25T05:58:41.260Z,101730.88
2019-03-25T05:59:47.138Z,101730.94
2019-03-25T06:00:53.169Z,101732.27
2019-03-25T06:01:58.773Z,101728.86
2019-03-25T06:03:04.450Z,101728.00
2019-03-25T06:04:10.095Z,101731.90
2019-03-25T06:05:15.829Z,101729.63
2019-03-25T06:06:21.526Z,101726.68
2019-03-25T06:07:27.192Z,101723.74
2019-03-25T06:08:32.831Z,101725.06
2019-03-25T06:09:38.794Z,101722.09
2019-03-25T06:10:44.794Z,101727.04
2019-03-25T06:11:50.782Z,101731.56
2019-03-25T06:12:56.732Z,101729.84
2019-03-25T06:14:02.321Z,101731.26
2019-03-25T06:15:08.845Z,101734.27
2019-03-25T06:16:14.539Z,101737.77
2019-03-25T06:17:20.232Z,101736.08
2019-03-25T06:18:25.908Z,101730.64
2019-03-25T06:19:31.541Z,101733.64
2019-03-25T06:20:37.226Z,101737.02
2019-03-25T06:21:43.219Z,101732.98
2019-03-25T06:22:48.733Z,101734.30
2019-03-25T06:23:54.305Z,101739.59
2019-03-25T06:24:59.892Z,101740.45
2019-03-25T06:26:05.971Z,101733.91
2019-03-25T06:27:14.483Z,101743.15
2019-03-25T06:28:19.015Z,101742.75
2019-03-25T06:29:24.636Z,101739.25
2019-03-25T06:30:30.903Z,101737.47
2019-03-25T06:31:36.560Z,101743.09
2019-03-25T06:32:42.342Z,101741.67
2019-03-25T06:33:47.957Z,101745.63
2019-03-25T06:34:53.649Z,101744.31
2019-03-25T06:35:59.387Z,101751.93
2019-03-25T06:37:05.034Z,101751.47
2019-03-25T06:38:10.710Z,101748.83
2019-03-25T06:39:16.442Z,101755.43
2019-03-25T06:40:22.197Z,101749.75
2019-03-25T06:41:28.240Z,101753.25
2019-03-25T06:42:34.191Z,101751.47
2019-03-25T06:43:39.814Z,101751.47
2019-03-25T06:44:45.551Z,101751.01
2019-03-25T06:45:51.260Z,101750.15
2019-03-25T06:46:57.192Z,101750.91
2019-03-25T06:48:02.799Z,101750.38
2019-03-25T06:49:08.800Z,101747.64
2019-03-25T06:50:14.643Z,101747.19
2019-03-25T06:51:20.567Z,101747.58
2019-03-25T06:52:26.261Z,101746.63
2019-03-25T06:53:32.050Z,101744.77
2019-03-25T06:54:37.779Z,101749.89
2019-03-25T06:55:43.673Z,101744.75
2019-03-25T06:56:49.707Z,101753.77
2019-03-25T06:57:55.760Z,101752.11
2019-03-25T06:59:01.241Z,101748.73
2019-03-25T07:00:08.738Z,101754.09
2019-03-25T07:01:14.658Z,101753.00
2019-03-25T07:02:20.265Z,101754.15
2019-03-25T07:03:26.032Z,101752.76
2019-03-25T07:04:32.006Z,101752.27
2019-03-25T07:05:37.963Z,101759.27
2019-03-25T07:06:43.548Z,101753.52
2019-03-25T07:07:49.082Z,101757.78
2019-03-25T07:08:54.755Z,101756.28
2019-03-25T07:10:00.502Z,101754.27
2019-03-25T07:11:06.646Z,101764.96
2019-03-25T07:12:12.780Z,101763.47
2019-03-25T07:13:18.795Z,101763.30
2019-03-25T07:14:24.734Z,101763.98
2019-03-25T07:15:31.012Z,101763.52
2019-03-25T07:16:36.648Z,101765.70
2019-03-25T07:17:42.296Z,101762.89
2019-03-25T07:18:47.849Z,101761.95
2019-03-25T07:19:53.456Z,101749.66
2019-03-25T07:20:59.015Z,101750.52
2019-03-25T07:22:04.662Z,101755.25
2019-03-25T07:23:10.376Z,101748.58
2019-03-25T07:24:15.935Z,101748.58
2019-03-25T07:25:21.615Z,101757.77
2019-03-25T07:26:27.129Z,101750.12
2019-03-25T07:27:37.099Z,101748.91
2019-03-25T07:28:39.920Z,101746.16
2019-03-25T07:29:45.476Z,101744.47
2019-03-25T07:30:51.074Z,101739.64
2019-03-25T07:31:57.096Z,101751.84
2019-03-25T07:33:03.187Z,101750.34
2019-03-25T07:34:08.848Z,101736.08
2019-03-25T07:35:14.563Z,101736.08
2019-03-25T07:36:20.241Z,101752.45
2019-03-25T07:37:26.270Z,101739.41
2019-03-25T07:38:31.956Z,101749.28
2019-03-25T07:39:37.588Z,101756.08
2019-03-25T07:40:43.260Z,101756.86
2019-03-25T07:41:48.818Z,101744.84
2019-03-25T07:42:54.377Z,101746.56
2019-03-25T07:43:59.967Z,101755.36
2019-03-25T07:45:06.077Z,101746.85
2019-03-25T07:46:12.281Z,101751.75
2019-03-25T07:47:18.009Z,101759.33
2019-03-25T07:48:24.063Z,101751.17
2019-03-25T07:49:29.811Z,101754.89
2019-03-25T07:50:35.472Z,101754.89
2019-03-25T07:51:41.202Z,101744.08
2019-03-25T07:52:47.227Z,101744.08
2019-03-25T07:53:53.098Z,101738.96
2019-03-25T07:54:58.906Z,101732.88
2019-03-25T07:56:04.815Z,101736.48
2019-03-25T07:57:11.713Z,101741.84
2019-03-25T07:58:17.533Z,101745.06
2019-03-25T07:59:23.133Z,101746.84
2019-03-25T08:00:28.799Z,101745.52
2019-03-25T08:01:34.443Z,101746.38
2019-03-25T08:02:40.367Z,101747.60
2019-03-25T08:03:46.873Z,101743.56
2019-03-25T08:04:52.460Z,101740.45
2019-03-25T08:05:58.357Z,101749.14
2019-03-25T08:07:04.400Z,101745.11
2019-03-25T08:08:10.266Z,101745.47
2019-03-25T08:09:16.272Z,101752.23
2019-03-25T08:10:47.023Z,101755.84
2019-03-25T08:11:52.943Z,101755.10
2019-03-25T08:12:58.619Z,101750.78
2019-03-25T08:14:04.471Z,101756.40
2019-03-25T08:15:10.476Z,101761.88
2019-03-25T08:16:16.047Z,101769.17
2019-03-25T08:17:22.053Z,101768.23
2019-03-25T08:18:28.120Z,101770.14
2019-03-25T08:19:33.686Z,101770.14
2019-03-25T08:20:39.238Z,101768.95
2019-03-25T08:21:44.926Z,101773.78
2019-03-25T08:22:50.889Z,101768.34
2019-03-25T08:23:56.493Z,101768.84
2019-03-25T08:25:02.192Z,101761.02
2019-03-25T08:26:08.031Z,101761.02
2019-03-25T08:27:13.757Z,101758.03
2019-03-25T08:28:19.774Z,101764.68
2019-03-25T08:29:25.330Z,101770.78
2019-03-25T08:30:31.429Z,101770.78
2019-03-25T08:31:37.436Z,101762.83
2019-03-25T08:32:43.143Z,101756.75
2019-03-25T08:33:48.902Z,101762.91
2019-03-25T08:34:54.817Z,101756.95
2019-03-25T08:36:00.834Z,101756.95
2019-03-25T08:37:06.514Z,101763.20
2019-03-25T08:38:12.209Z,101763.20
2019-03-25T08:39:17.754Z,101749.59
2019-03-25T08:40:23.406Z,101749.59
2019-03-25T08:41:29.328Z,101762.84
2019-03-25T08:42:35.038Z,101762.84
2019-03-25T08:43:40.854Z,101765.97
2019-03-25T08:44:46.801Z,101764.92
2019-03-25T08:45:52.735Z,101770.61
2019-03-25T08:46:58.291Z,101761.80
2019-03-25T08:48:03.964Z,101756.20
2019-03-25T08:49:11.924Z,101755.92
2019-03-25T08:50:17.348Z,101765.77
2019-03-25T08:51:23.257Z,101781.39
2019-03-25T08:52:29.484Z,101762.25
2019-03-25T08:53:35.187Z,101762.25
2019-03-25T08:54:41.169Z,101780.13
2019-03-25T08:55:46.937Z,101780.42
2019-03-25T08:56:52.780Z,101782.49
2019-03-25T08:57:58.357Z,101782.49
2019-03-25T08:59:03.910Z,101814.10
2019-03-25T09:00:10.234Z,101791.78
2019-03-25T09:01:15.935Z,101791.78
2019-03-25T09:02:21.627Z,101798.48
2019-03-25T09:03:27.177Z,101790.46
2019-03-25T09:04:32.686Z,101791.39
2019-03-25T09:05:38.351Z,101795.97
2019-03-25T09:06:44.012Z,101798.25
2019-03-25T09:07:49.548Z,101806.08
2019-03-25T09:08:55.200Z,101806.08
2019-03-25T09:10:00.801Z,101799.56
2019-03-25T09:11:07.179Z,101790.16
2019-03-25T09:12:13.306Z,101818.87
2019-03-25T09:13:18.866Z,101820.75
2019-03-25T09:14:24.447Z,101810.94
2019-03-25T09:15:30.015Z,101808.67
2019-03-25T09:16:38.489Z,101812.26
2019-03-25T09:17:44.447Z,101809.03
2019-03-25T09:18:50.104Z,101814.53
2019-03-25T09:19:55.765Z,101812.55
2019-03-25T09:21:01.361Z,101818.23
2019-03-25T09:22:07.259Z,101817.69
2019-03-25T09:23:12.911Z,101802.44
2019-03-25T09:24:18.683Z,101820.23
2019-03-25T09:25:24.927Z,101821.94
2019-03-25T09:26:30.555Z,101826.18
2019-03-25T09:27:36.255Z,101814.44
2019-03-25T09:28:42.475Z,101802.22
2019-03-25T09:29:48.044Z,101802.22
2019-03-25T09:31:20.263Z,101804.01
2019-03-25T09:32:25.841Z,101815.67
2019-03-25T09:33:31.535Z,101815.88
2019-03-25T09:34:37.256Z,101817.48
2019-03-25T09:35:42.905Z,101813.42
2019-03-25T09:36:48.587Z,101826.02
2019-03-25T09:37:54.273Z,101827.50
2019-03-25T09:39:00.023Z,101812.64
2019-03-25T09:40:06.842Z,101812.29
2019-03-25T09:41:12.492Z,101821.25
2019-03-25T09:42:18.166Z,101815.09
2019-03-25T09:43:23.805Z,101814.55
2019-03-25T09:44:29.444Z,101829.02
2019-03-25T09:45:35.169Z,101813.03
2019-03-25T09:46:41.160Z,101818.34
2019-03-25T09:47:46.896Z,101818.34
2019-03-25T09:48:52.618Z,101817.21
2019-03-25T09:49:58.272Z,101823.45
2019-03-25T09:51:04.124Z,101820.41
2019-03-25T09:52:09.751Z,101824.58
2019-03-25T09:53:15.744Z,101825.44
2019-03-25T09:54:21.400Z,101824.97
2019-03-25T09:55:27.085Z,101822.59
2019-03-25T09:56:32.791Z,101817.48
2019-03-25T09:57:38.461Z,101817.48
2019-03-25T09:58:44.315Z,101823.45
2019-03-25T09:59:50.029Z,101830.47
2019-03-25T10:00:56.689Z,101830.83
2019-03-25T10:02:02.407Z,101831.50
2019-03-25T10:03:08.072Z,101830.76
2019-03-25T10:04:14.119Z,101844.77
2019-03-25T10:05:19.823Z,101826.31
2019-03-25T10:06:25.611Z,101837.39
2019-03-25T10:07:31.361Z,101833.41
2019-03-25T10:08:36.933Z,101817.02
2019-03-25T10:09:42.571Z,101829.13
2019-03-25T10:10:48.557Z,101823.84
2019-03-25T10:11:54.438Z,101831.14
2019-03-25T10:13:00.079Z,101826.69
2019-03-25T10:14:06.170Z,101838.05
2019-03-25T10:15:12.010Z,101839.45
2019-03-25T10:16:18.091Z,101838.79
2019-03-25T10:17:24.067Z,101840.70
2019-03-25T10:18:30.224Z,101862.12
2019-03-25T10:19:36.108Z,101846.66
2019-03-25T10:20:41.837Z,101859.16
2019-03-25T10:21:47.479Z,101885.53
2019-03-25T10:22:53.126Z,101894.00
2019-03-25T10:23:59.155Z,101882.27
2019-03-25T10:25:05.447Z,101908.92
2019-03-25T10:26:11.002Z,101920.00
2019-03-25T10:27:16.499Z,101902.69
2019-03-25T10:28:22.158Z,101902.69
2019-03-25T10:29:27.830Z,101897.20
2019-03-25T10:30:33.502Z,101897.20
2019-03-25T10:31:39.598Z,101915.86
2019-03-25T10:32:46.732Z,101892.62
2019-03-25T10:33:52.824Z,101892.91
2019-03-25T10:34:58.807Z,101897.33
2019-03-25T10:36:04.494Z,101895.03
2019-03-25T10:37:10.226Z,101890.44
2019-03-25T10:38:19.824Z,101888.60
2019-03-25T10:39:23.472Z,101880.69
2019-03-25T10:40:29.068Z,101889.38
2019-03-25T10:41:34.778Z,101892.81
2019-03-25T10:42:40.879Z,101894.91
2019-03-25T10:43:46.610Z,101895.16
2019-03-25T10:44:52.202Z,101899.89
2019-03-25T10:45:57.808Z,101899.28
2019-03-25T10:47:03.388Z,101896.09
2019-03-25T10:48:09.094Z,101904.01
2019-03-25T10:49:16.240Z,101905.67
2019-03-25T10:50:22.165Z,101903.41
2019-03-25T10:51:27.857Z,101905.67
2019-03-25T10:52:33.571Z,101905.67
2019-03-25T10:53:39.224Z,101915.68
2019-03-25T10:54:45.287Z,101907.70
2019-03-25T10:55:51.017Z,101897.31
2019-03-25T10:56:56.565Z,101894.31
2019-03-25T10:58:02.313Z,101881.52
2019-03-25T10:59:08.006Z,101890.20
2019-03-25T11:00:14.409Z,101888.39
2019-03-25T11:01:20.302Z,101898.34
2019-03-25T11:02:25.876Z,101893.63
2019-03-25T11:03:31.721Z,101885.45
2019-03-25T11:04:37.307Z,101882.17
2019-03-25T11:05:42.941Z,101887.30
2019-03-25T11:06:48.638Z,101883.70
2019-03-25T11:07:54.309Z,101897.35
2019-03-25T11:08:59.994Z,101876.03
2019-03-25T11:10:06.203Z,101885.69
2019-03-25T11:11:11.829Z,101885.69
2019-03-25T11:12:17.907Z,101881.95
2019-03-25T11:13:23.604Z,101892.72
2019-03-25T11:14:29.495Z,101888.81
2019-03-25T11:15:35.237Z,101867.55
2019-03-25T11:16:40.945Z,101867.55
2019-03-25T11:17:46.627Z,101890.36
2019-03-25T11:18:52.304Z,101880.41
2019-03-25T11:19:57.951Z,101885.28
2019-03-25T11:21:03.484Z,101883.69
2019-03-25T11:22:09.372Z,101876.38
2019-03-25T11:23:14.967Z,101852.27
2019-03-25T11:24:21.206Z,101852.27
2019-03-25T11:25:26.895Z,101875.52
2019-03-25T11:26:32.726Z,101892.55
2019-03-25T11:27:38.349Z,101916.84
2019-03-25T11:28:43.972Z,101939.69
2019-03-25T11:29:49.675Z,101961.29
2019-03-25T11:30:59.963Z,101980.16
2019-03-25T11:32:05.934Z,101945.81
2019-03-25T11:33:11.654Z,101944.96
2019-03-25T11:34:17.254Z,101949.59
2019-03-25T11:35:22.904Z,101939.09
2019-03-25T11:36:28.874Z,101937.27
2019-03-25T11:37:34.535Z,101935.09
2019-03-25T11:38:40.592Z,101935.59
2019-03-25T11:39:46.297Z,101931.73
2019-03-25T11:40:51.941Z,101929.50
2019-03-25T11:41:57.798Z,101928.05
2019-03-25T11:43:03.524Z,101924.74
2019-03-25T11:44:09.283Z,101919.66
2019-03-25T11:45:15.234Z,101923.82
2019-03-25T11:46:21.152Z,101914.32
2019-03-25T11:47:26.982Z,101920.17
2019-03-25T11:48:32.744Z,101919.30
2019-03-25T11:49:38.636Z,101929.42
2019-03-25T11:50:44.616Z,101928.08
2019-03-25T11:51:50.253Z,101928.37
2019-03-25T11:52:56.172Z,101932.61
2019-03-25T11:54:01.951Z,101938.57
2019-03-25T11:55:08.143Z,101933.19
2019-03-25T11:56:13.776Z,101936.55
2019-03-25T11:57:19.318Z,101937.17
2019-03-25T11:58:25.302Z,101942.64
2019-03-25T11:59:30.955Z,101951.80
2019-03-25T12:00:36.539Z,101947.63
2019-03-25T12:01:42.238Z,101935.07
2019-03-25T12:02:47.858Z,101933.78
2019-03-25T12:03:53.794Z,101930.52
2019-03-25T12:04:59.478Z,101933.40
2019-03-25T12:06:05.492Z,101943.19
2019-03-25T12:07:11.195Z,101934.42
2019-03-25T12:08:16.904Z,101926.64
2019-03-25T12:09:22.510Z,101921.89
2019-03-25T12:10:28.053Z,101923.28
2019-03-25T12:11:33.807Z,101934.86
2019-03-25T12:12:39.457Z,101919.23
2019-03-25T12:13:45.012Z,101926.05
2019-03-25T12:14:50.825Z,101931.56
2019-03-25T12:15:56.520Z,101922.94
2019-03-25T12:17:02.462Z,101928.83
2019-03-25T12:18:08.169Z,101924.63
2019-03-25T12:19:14.178Z,101928.33
2019-03-25T12:20:19.855Z,101928.33
2019-03-25T12:21:25.695Z,101922.97
2019-03-25T12:22:31.650Z,101918.84
2019-03-25T12:23:37.780Z,101910.27
2019-03-25T12:24:43.320Z,101924.78
2019-03-25T12:25:49.264Z,101919.84
2019-03-25T12:26:55.327Z,101909.58
2019-03-25T12:28:00.943Z,101909.58
2019-03-25T12:29:06.605Z,101919.18
2019-03-25T12:30:12.950Z,101904.03
2019-03-25T12:31:18.670Z,101904.93
2019-03-25T12:32:24.302Z,101904.93
2019-03-25T12:33:30.029Z,101907.72